sensor_id;sensor_type;location;lat;lon;timestamp;temperature;humidity
4739;DHT22;2383;48.632;10.156;2023-07-29T00:01:09;16.70;99.90
4739;DHT22;2383;48.632;10.156;2023-07-29T00:05:11;16.80;99.90
4739;DHT22;2383;48.632;10.156;2023-07-29T00:09:13;16.90;99.90
4739;DHT22;2383;48.632;10.156;2023-07-29T00:13:15;17.00;99.90
4739;DHT22;2383;48.632;10.156;2023-07-29T00:17:17;17.00;99.90
4739;DHT22;2383;48.632;10.156;2023-07-29T00:21:19;16.80;99.90
4739;DHT22;2383;48.632;10.156;2023-07-29T00:25:21;16.70;99.90
4739;DHT22;2383;48.632;10.156;2023-07-29T00:29:23;16.60;99.90
4739;DHT22;2383;48.632;10.156;2023-07-29T00:33:26;16.60;99.90
4739;DHT22;2383;48.632;10.156;2023-07-29T00:37:29;16.70;99.90
4739;DHT22;2383;48.632;10.156;2023-07-29T00:41:32;16.70;99.90
4739;DHT22;2383;48.632;10.156;2023-07-29T00:45:34;16.60;99.90
4739;DHT22;2383;48.632;10.156;2023-07-29T00:49:36;16.60;99.90
4739;DHT22;2383;48.632;10.156;2023-07-29T00:53:38;16.60;99.90
4739;DHT22;2383;48.632;10.156;2023-07-29T00:57:41;16.40;99.90
4739;DHT22;2383;48.632;10.156;2023-07-29T01:01:44;16.30;99.90
4739;DHT22;2383;48.632;10.156;2023-07-29T01:06:01;16.20;99.90
4739;DHT22;2383;48.632;10.156;2023-07-29T01:18:53;16.30;99.90
4739;DHT22;2383;48.632;10.156;2023-07-29T01:22:57;16.30;99.90
4739;DHT22;2383;48.632;10.156;2023-07-29T01:26:59;16.40;99.90
4739;DHT22;2383;48.632;10.156;2023-07-29T01:31:13;16.50;99.90
4739;DHT22;2383;48.632;10.156;2023-07-29T01:39:32;16.50;99.90
4739;DHT22;2383;48.632;10.156;2023-07-29T01:43:37;16.60;99.90
4739;DHT22;2383;48.632;10.156;2023-07-29T01:47:46;16.60;99.90
4739;DHT22;2383;48.632;10.156;2023-07-29T01:51:49;16.50;99.90
4739;DHT22;2383;48.632;10.156;2023-07-29T01:55:51;16.40;99.90
4739;DHT22;2383;48.632;10.156;2023-07-29T01:59:53;16.30;99.90
4739;DHT22;2383;48.632;10.156;2023-07-29T02:03:55;16.10;99.90
4739;DHT22;2383;48.632;10.156;2023-07-29T02:07:58;15.90;99.90
4739;DHT22;2383;48.632;10.156;2023-07-29T02:12:00;16.00;99.90
4739;DHT22;2383;48.632;10.156;2023-07-29T02:16:11;16.10;99.90
4739;DHT22;2383;48.632;10.156;2023-07-29T02:20:13;16.30;99.90
4739;DHT22;2383;48.632;10.156;2023-07-29T02:24:15;16.50;99.90
4739;DHT22;2383;48.632;10.156;2023-07-29T02:28:17;16.50;99.90
4739;DHT22;2383;48.632;10.156;2023-07-29T02:32:20;16.50;99.90
4739;DHT22;2383;48.632;10.156;2023-07-29T02:36:22;16.60;99.90
4739;DHT22;2383;48.632;10.156;2023-07-29T02:40:24;16.60;99.90
4739;DHT22;2383;48.632;10.156;2023-07-29T02:44:28;16.60;99.90
4739;DHT22;2383;48.632;10.156;2023-07-29T02:48:30;16.60;99.90
4739;DHT22;2383;48.632;10.156;2023-07-29T02:52:32;16.60;99.90
4739;DHT22;2383;48.632;10.156;2023-07-29T02:56:34;16.60;99.90
4739;DHT22;2383;48.632;10.156;2023-07-29T03:00:37;16.60;99.90
4739;DHT22;2383;48.632;10.156;2023-07-29T03:04:39;16.40;99.90
4739;DHT22;2383;48.632;10.156;2023-07-29T03:08:41;16.40;99.90
4739;DHT22;2383;48.632;10.156;2023-07-29T03:12:43;16.30;99.90
4739;DHT22;2383;48.632;10.156;2023-07-29T03:16:45;16.20;99.90
4739;DHT22;2383;48.632;10.156;2023-07-29T03:20:49;16.10;99.90
4739;DHT22;2383;48.632;10.156;2023-07-29T03:24:50;16.10;99.90
4739;DHT22;2383;48.632;10.156;2023-07-29T03:28:52;16.10;99.90
4739;DHT22;2383;48.632;10.156;2023-07-29T03:32:54;16.10;99.90
4739;DHT22;2383;48.632;10.156;2023-07-29T03:36:56;15.90;99.90
4739;DHT22;2383;48.632;10.156;2023-07-29T03:40:59;15.80;99.90
4739;DHT22;2383;48.632;10.156;2023-07-29T03:45:01;15.60;99.90
4739;DHT22;2383;48.632;10.156;2023-07-29T03:49:03;15.80;99.90
4739;DHT22;2383;48.632;10.156;2023-07-29T03:53:05;15.70;99.90
4739;DHT22;2383;48.632;10.156;2023-07-29T03:57:07;15.70;99.90
4739;DHT22;2383;48.632;10.156;2023-07-29T04:01:09;15.70;99.90
4739;DHT22;2383;48.632;10.156;2023-07-29T04:05:11;15.80;99.90
4739;DHT22;2383;48.632;10.156;2023-07-29T04:09:14;15.90;99.90
4739;DHT22;2383;48.632;10.156;2023-07-29T04:13:16;16.00;99.90
4739;DHT22;2383;48.632;10.156;2023-07-29T04:17:18;16.10;99.90
4739;DHT22;2383;48.632;10.156;2023-07-29T04:21:20;16.10;99.90
4739;DHT22;2383;48.632;10.156;2023-07-29T04:25:22;16.20;99.90
4739;DHT22;2383;48.632;10.156;2023-07-29T04:29:24;16.30;99.90
4739;DHT22;2383;48.632;10.156;2023-07-29T04:33:26;16.30;99.90
4739;DHT22;2383;48.632;10.156;2023-07-29T04:37:28;16.40;99.90
4739;DHT22;2383;48.632;10.156;2023-07-29T04:41:30;16.40;99.90
4739;DHT22;2383;48.632;10.156;2023-07-29T04:45:32;16.50;99.90
4739;DHT22;2383;48.632;10.156;2023-07-29T04:49:34;16.50;99.90
4739;DHT22;2383;48.632;10.156;2023-07-29T04:53:36;16.50;99.90
4739;DHT22;2383;48.632;10.156;2023-07-29T04:57:40;16.40;99.90
4739;DHT22;2383;48.632;10.156;2023-07-29T05:01:43;16.40;99.90
4739;DHT22;2383;48.632;10.156;2023-07-29T05:05:45;16.50;99.90
4739;DHT22;2383;48.632;10.156;2023-07-29T05:09:48;16.30;99.90
4739;DHT22;2383;48.632;10.156;2023-07-29T05:13:50;16.20;99.90
4739;DHT22;2383;48.632;10.156;2023-07-29T05:17:52;16.10;99.90
4739;DHT22;2383;48.632;10.156;2023-07-29T05:21:55;16.10;99.90
4739;DHT22;2383;48.632;10.156;2023-07-29T05:25:57;16.30;99.90
4739;DHT22;2383;48.632;10.156;2023-07-29T05:29:59;16.20;99.90
4739;DHT22;2383;48.632;10.156;2023-07-29T05:34:01;16.40;99.90
4739;DHT22;2383;48.632;10.156;2023-07-29T05:38:03;16.10;99.90
4739;DHT22;2383;48.632;10.156;2023-07-29T05:42:07;16.20;99.90
4739;DHT22;2383;48.632;10.156;2023-07-29T05:46:10;16.40;99.90
4739;DHT22;2383;48.632;10.156;2023-07-29T05:50:12;16.60;99.90
4739;DHT22;2383;48.632;10.156;2023-07-29T05:54:14;16.80;99.90
4739;DHT22;2383;48.632;10.156;2023-07-29T05:58:16;16.90;99.90
4739;DHT22;2383;48.632;10.156;2023-07-29T06:02:18;16.80;99.90
4739;DHT22;2383;48.632;10.156;2023-07-29T06:06:20;16.70;99.90
4739;DHT22;2383;48.632;10.156;2023-07-29T06:10:23;17.00;99.90
4739;DHT22;2383;48.632;10.156;2023-07-29T06:14:25;17.20;99.90
4739;DHT22;2383;48.632;10.156;2023-07-29T06:18:27;17.30;99.90
4739;DHT22;2383;48.632;10.156;2023-07-29T06:22:29;17.00;99.90
4739;DHT22;2383;48.632;10.156;2023-07-29T06:26:31;16.50;99.90
4739;DHT22;2383;48.632;10.156;2023-07-29T06:30:33;15.20;99.90
4739;DHT22;2383;48.632;10.156;2023-07-29T06:34:36;15.00;99.90
4739;DHT22;2383;48.632;10.156;2023-07-29T06:38:37;15.50;99.90
4739;DHT22;2383;48.632;10.156;2023-07-29T06:42:40;15.80;99.90
4739;DHT22;2383;48.632;10.156;2023-07-29T06:46:41;16.00;99.90
4739;DHT22;2383;48.632;10.156;2023-07-29T06:50:44;16.20;99.90
4739;DHT22;2383;48.632;10.156;2023-07-29T06:54:46;16.50;99.90
4739;DHT22;2383;48.632;10.156;2023-07-29T06:58:48;16.50;99.90
4739;DHT22;2383;48.632;10.156;2023-07-29T07:02:50;16.70;99.90
4739;DHT22;2383;48.632;10.156;2023-07-29T07:06:52;17.10;99.90
4739;DHT22;2383;48.632;10.156;2023-07-29T07:10:54;17.50;99.90
4739;DHT22;2383;48.632;10.156;2023-07-29T07:14:56;17.60;99.90
4739;DHT22;2383;48.632;10.156;2023-07-29T07:18:58;17.70;99.90
4739;DHT22;2383;48.632;10.156;2023-07-29T07:23:00;17.90;99.90
4739;DHT22;2383;48.632;10.156;2023-07-29T07:27:02;17.70;99.90
4739;DHT22;2383;48.632;10.156;2023-07-29T07:31:04;17.50;99.90
4739;DHT22;2383;48.632;10.156;2023-07-29T07:35:06;17.10;99.90
4739;DHT22;2383;48.632;10.156;2023-07-29T07:39:09;17.50;99.90
4739;DHT22;2383;48.632;10.156;2023-07-29T07:43:10;17.80;99.90
4739;DHT22;2383;48.632;10.156;2023-07-29T07:47:12;17.70;99.90
4739;DHT22;2383;48.632;10.156;2023-07-29T07:51:14;17.80;99.90
4739;DHT22;2383;48.632;10.156;2023-07-29T07:55:16;18.00;99.90
4739;DHT22;2383;48.632;10.156;2023-07-29T07:59:18;18.30;99.90
4739;DHT22;2383;48.632;10.156;2023-07-29T08:03:20;18.70;99.90
4739;DHT22;2383;48.632;10.156;2023-07-29T08:07:22;18.80;99.90
4739;DHT22;2383;48.632;10.156;2023-07-29T08:11:25;18.60;99.90
4739;DHT22;2383;48.632;10.156;2023-07-29T08:15:27;18.70;99.90
4739;DHT22;2383;48.632;10.156;2023-07-29T08:19:29;18.30;99.90
4739;DHT22;2383;48.632;10.156;2023-07-29T08:23:33;16.90;99.90
4739;DHT22;2383;48.632;10.156;2023-07-29T08:27:35;16.20;99.90
4739;DHT22;2383;48.632;10.156;2023-07-29T08:31:37;16.10;99.90
4739;DHT22;2383;48.632;10.156;2023-07-29T08:35:39;16.50;99.90
4739;DHT22;2383;48.632;10.156;2023-07-29T08:39:41;16.60;99.90
4739;DHT22;2383;48.632;10.156;2023-07-29T08:43:52;17.00;99.90
4739;DHT22;2383;48.632;10.156;2023-07-29T08:47:57;17.40;99.90
4739;DHT22;2383;48.632;10.156;2023-07-29T08:52:01;17.90;99.90
4739;DHT22;2383;48.632;10.156;2023-07-29T08:56:04;17.90;99.90
4739;DHT22;2383;48.632;10.156;2023-07-29T09:00:07;18.10;99.90
4739;DHT22;2383;48.632;10.156;2023-07-29T09:04:09;17.90;99.90
4739;DHT22;2383;48.632;10.156;2023-07-29T09:08:12;17.90;99.90
4739;DHT22;2383;48.632;10.156;2023-07-29T09:12:14;17.90;99.90
4739;DHT22;2383;48.632;10.156;2023-07-29T09:16:17;18.10;99.90
4739;DHT22;2383;48.632;10.156;2023-07-29T09:20:24;18.60;99.90
4739;DHT22;2383;48.632;10.156;2023-07-29T09:24:27;19.00;99.90
4739;DHT22;2383;48.632;10.156;2023-07-29T09:28:37;19.30;99.90
4739;DHT22;2383;48.632;10.156;2023-07-29T09:32:39;19.40;99.90
4739;DHT22;2383;48.632;10.156;2023-07-29T09:36:41;19.10;99.90
4739;DHT22;2383;48.632;10.156;2023-07-29T09:40:43;18.90;99.90
4739;DHT22;2383;48.632;10.156;2023-07-29T09:44:49;18.80;99.90
4739;DHT22;2383;48.632;10.156;2023-07-29T09:48:53;18.20;99.90
4739;DHT22;2383;48.632;10.156;2023-07-29T09:52:57;18.30;99.90
4739;DHT22;2383;48.632;10.156;2023-07-29T09:57:02;18.30;99.90
4739;DHT22;2383;48.632;10.156;2023-07-29T10:01:08;17.80;99.90
4739;DHT22;2383;48.632;10.156;2023-07-29T10:05:10;17.90;99.90
4739;DHT22;2383;48.632;10.156;2023-07-29T10:09:12;18.40;99.90
4739;DHT22;2383;48.632;10.156;2023-07-29T10:13:15;18.30;99.90
4739;DHT22;2383;48.632;10.156;2023-07-29T10:17:19;18.30;99.90
4739;DHT22;2383;48.632;10.156;2023-07-29T10:21:22;18.60;99.90
4739;DHT22;2383;48.632;10.156;2023-07-29T10:25:25;19.10;99.90
4739;DHT22;2383;48.632;10.156;2023-07-29T10:29:38;18.80;99.90
4739;DHT22;2383;48.632;10.156;2023-07-29T10:33:40;18.80;99.90
4739;DHT22;2383;48.632;10.156;2023-07-29T10:37:43;18.70;99.90
4739;DHT22;2383;48.632;10.156;2023-07-29T10:45:57;18.30;99.90
4739;DHT22;2383;48.632;10.156;2023-07-29T10:50:20;18.40;99.90
4739;DHT22;2383;48.632;10.156;2023-07-29T10:54:22;18.10;99.90
4739;DHT22;2383;48.632;10.156;2023-07-29T10:58:25;18.30;99.90
4739;DHT22;2383;48.632;10.156;2023-07-29T11:02:31;18.20;99.90
4739;DHT22;2383;48.632;10.156;2023-07-29T11:11:07;18.80;99.90
4739;DHT22;2383;48.632;10.156;2023-07-29T11:19:17;18.60;99.90
4739;DHT22;2383;48.632;10.156;2023-07-29T11:23:21;18.70;99.90
4739;DHT22;2383;48.632;10.156;2023-07-29T11:27:28;19.10;99.90
4739;DHT22;2383;48.632;10.156;2023-07-29T11:31:40;18.90;99.90
4739;DHT22;2383;48.632;10.156;2023-07-29T11:35:42;18.60;99.90
4739;DHT22;2383;48.632;10.156;2023-07-29T11:39:44;18.70;99.90
4739;DHT22;2383;48.632;10.156;2023-07-29T11:43:47;18.80;99.90
4739;DHT22;2383;48.632;10.156;2023-07-29T11:47:48;18.80;99.90
4739;DHT22;2383;48.632;10.156;2023-07-29T11:51:50;19.20;99.90
4739;DHT22;2383;48.632;10.156;2023-07-29T11:55:53;19.60;99.90
4739;DHT22;2383;48.632;10.156;2023-07-29T11:59:55;19.50;99.90
4739;DHT22;2383;48.632;10.156;2023-07-29T12:03:58;19.60;99.90
4739;DHT22;2383;48.632;10.156;2023-07-29T12:08:01;19.90;99.90
4739;DHT22;2383;48.632;10.156;2023-07-29T12:12:04;19.30;99.90
4739;DHT22;2383;48.632;10.156;2023-07-29T12:16:07;19.30;99.90
4739;DHT22;2383;48.632;10.156;2023-07-29T12:20:10;19.20;99.90
4739;DHT22;2383;48.632;10.156;2023-07-29T12:24:12;18.20;99.90
4739;DHT22;2383;48.632;10.156;2023-07-29T12:28:15;17.90;99.90
4739;DHT22;2383;48.632;10.156;2023-07-29T12:32:17;18.20;99.90
4739;DHT22;2383;48.632;10.156;2023-07-29T12:36:19;18.90;99.90
4739;DHT22;2383;48.632;10.156;2023-07-29T12:40:22;19.10;99.90
4739;DHT22;2383;48.632;10.156;2023-07-29T12:44:27;19.00;99.90
4739;DHT22;2383;48.632;10.156;2023-07-29T12:48:29;18.40;99.90
4739;DHT22;2383;48.632;10.156;2023-07-29T12:52:31;18.50;99.90
4739;DHT22;2383;48.632;10.156;2023-07-29T12:56:33;19.20;99.90
4739;DHT22;2383;48.632;10.156;2023-07-29T13:00:36;19.40;99.90
4739;DHT22;2383;48.632;10.156;2023-07-29T13:04:38;19.40;99.90
4739;DHT22;2383;48.632;10.156;2023-07-29T13:08:40;19.50;99.90
4739;DHT22;2383;48.632;10.156;2023-07-29T13:12:42;19.30;99.90
4739;DHT22;2383;48.632;10.156;2023-07-29T13:16:44;18.80;99.90
4739;DHT22;2383;48.632;10.156;2023-07-29T13:20:46;19.00;99.90
4739;DHT22;2383;48.632;10.156;2023-07-29T13:24:48;19.90;99.90
4739;DHT22;2383;48.632;10.156;2023-07-29T13:28:50;19.90;99.90
4739;DHT22;2383;48.632;10.156;2023-07-29T13:32:52;19.80;99.90
4739;DHT22;2383;48.632;10.156;2023-07-29T13:36:54;21.10;99.90
4739;DHT22;2383;48.632;10.156;2023-07-29T13:40:56;21.30;99.90
4739;DHT22;2383;48.632;10.156;2023-07-29T13:44:58;20.60;99.90
4739;DHT22;2383;48.632;10.156;2023-07-29T13:49:00;21.00;99.90
4739;DHT22;2383;48.632;10.156;2023-07-29T13:53:03;21.50;99.90
4739;DHT22;2383;48.632;10.156;2023-07-29T13:57:05;21.40;99.90
4739;DHT22;2383;48.632;10.156;2023-07-29T14:01:08;20.60;99.90
4739;DHT22;2383;48.632;10.156;2023-07-29T14:05:10;20.50;99.90
4739;DHT22;2383;48.632;10.156;2023-07-29T14:09:13;19.90;99.90
4739;DHT22;2383;48.632;10.156;2023-07-29T14:13:15;19.50;99.90
4739;DHT22;2383;48.632;10.156;2023-07-29T14:17:17;19.40;99.90
4739;DHT22;2383;48.632;10.156;2023-07-29T14:21:19;20.90;99.90
4739;DHT22;2383;48.632;10.156;2023-07-29T14:25:21;21.90;99.90
4739;DHT22;2383;48.632;10.156;2023-07-29T14:29:23;21.20;99.90
4739;DHT22;2383;48.632;10.156;2023-07-29T14:33:25;21.60;99.90
4739;DHT22;2383;48.632;10.156;2023-07-29T14:37:28;21.80;99.90
4739;DHT22;2383;48.632;10.156;2023-07-29T14:41:31;22.00;99.90
4739;DHT22;2383;48.632;10.156;2023-07-29T14:45:33;22.00;99.90
4739;DHT22;2383;48.632;10.156;2023-07-29T14:49:35;22.00;99.90
4739;DHT22;2383;48.632;10.156;2023-07-29T14:53:37;21.60;99.90
4739;DHT22;2383;48.632;10.156;2023-07-29T14:57:38;22.00;99.90
4739;DHT22;2383;48.632;10.156;2023-07-29T15:01:43;21.70;99.90
4739;DHT22;2383;48.632;10.156;2023-07-29T15:05:45;21.60;99.50
4739;DHT22;2383;48.632;10.156;2023-07-29T15:09:47;20.90;99.20
4739;DHT22;2383;48.632;10.156;2023-07-29T15:13:49;21.30;98.60
4739;DHT22;2383;48.632;10.156;2023-07-29T15:17:51;21.40;98.10
4739;DHT22;2383;48.632;10.156;2023-07-29T15:21:53;21.10;98.50
4739;DHT22;2383;48.632;10.156;2023-07-29T15:25:55;21.80;98.40
4739;DHT22;2383;48.632;10.156;2023-07-29T15:29:57;21.60;99.00
4739;DHT22;2383;48.632;10.156;2023-07-29T15:33:59;22.00;99.00
4739;DHT22;2383;48.632;10.156;2023-07-29T15:38:01;22.20;97.90
4739;DHT22;2383;48.632;10.156;2023-07-29T15:42:04;22.40;98.50
4739;DHT22;2383;48.632;10.156;2023-07-29T15:46:06;22.20;98.30
4739;DHT22;2383;48.632;10.156;2023-07-29T15:50:08;22.00;97.50
4739;DHT22;2383;48.632;10.156;2023-07-29T15:54:10;22.10;97.40
4739;DHT22;2383;48.632;10.156;2023-07-29T15:58:12;22.40;97.80
4739;DHT22;2383;48.632;10.156;2023-07-29T16:02:14;22.00;97.10
4739;DHT22;2383;48.632;10.156;2023-07-29T16:06:16;21.60;97.10
4739;DHT22;2383;48.632;10.156;2023-07-29T16:10:19;21.70;97.50
4739;DHT22;2383;48.632;10.156;2023-07-29T16:14:21;21.40;96.60
4739;DHT22;2383;48.632;10.156;2023-07-29T16:18:25;21.20;97.60
4739;DHT22;2383;48.632;10.156;2023-07-29T16:22:27;21.30;97.30
4739;DHT22;2383;48.632;10.156;2023-07-29T16:26:29;21.60;97.50
4739;DHT22;2383;48.632;10.156;2023-07-29T16:30:31;21.20;97.40
4739;DHT22;2383;48.632;10.156;2023-07-29T16:34:33;21.50;98.30
4739;DHT22;2383;48.632;10.156;2023-07-29T16:38:35;21.60;98.00
4739;DHT22;2383;48.632;10.156;2023-07-29T16:42:37;21.30;97.20
4739;DHT22;2383;48.632;10.156;2023-07-29T16:46:39;21.50;97.60
4739;DHT22;2383;48.632;10.156;2023-07-29T16:50:41;21.30;97.60
4739;DHT22;2383;48.632;10.156;2023-07-29T16:54:43;21.40;96.70
4739;DHT22;2383;48.632;10.156;2023-07-29T16:58:45;21.60;97.60
4739;DHT22;2383;48.632;10.156;2023-07-29T17:02:47;21.80;96.70
4739;DHT22;2383;48.632;10.156;2023-07-29T17:06:49;21.80;96.70
4739;DHT22;2383;48.632;10.156;2023-07-29T17:10:51;21.60;97.70
4739;DHT22;2383;48.632;10.156;2023-07-29T17:14:53;21.70;98.10
4739;DHT22;2383;48.632;10.156;2023-07-29T17:18:55;21.60;98.20
4739;DHT22;2383;48.632;10.156;2023-07-29T17:22:58;21.40;98.20
4739;DHT22;2383;48.632;10.156;2023-07-29T17:27:00;21.40;98.40
4739;DHT22;2383;48.632;10.156;2023-07-29T17:31:02;21.40;98.50
4739;DHT22;2383;48.632;10.156;2023-07-29T17:35:04;21.50;99.00
4739;DHT22;2383;48.632;10.156;2023-07-29T17:39:06;21.50;99.50
4739;DHT22;2383;48.632;10.156;2023-07-29T17:43:08;21.50;99.90
4739;DHT22;2383;48.632;10.156;2023-07-29T17:47:10;21.20;99.90
4739;DHT22;2383;48.632;10.156;2023-07-29T17:51:13;20.90;99.90
4739;DHT22;2383;48.632;10.156;2023-07-29T17:55:15;20.80;99.90
4739;DHT22;2383;48.632;10.156;2023-07-29T17:59:17;20.70;99.90
4739;DHT22;2383;48.632;10.156;2023-07-29T18:03:19;20.60;99.90
4739;DHT22;2383;48.632;10.156;2023-07-29T18:07:21;20.30;99.90
4739;DHT22;2383;48.632;10.156;2023-07-29T18:11:23;20.20;99.90
4739;DHT22;2383;48.632;10.156;2023-07-29T18:15:25;20.10;99.90
4739;DHT22;2383;48.632;10.156;2023-07-29T18:19:27;20.10;99.90
4739;DHT22;2383;48.632;10.156;2023-07-29T18:23:32;20.10;99.90
4739;DHT22;2383;48.632;10.156;2023-07-29T18:27:34;20.20;99.90
4739;DHT22;2383;48.632;10.156;2023-07-29T18:31:36;20.10;99.90
4739;DHT22;2383;48.632;10.156;2023-07-29T18:35:42;19.90;99.90
4739;DHT22;2383;48.632;10.156;2023-07-29T18:39:44;19.80;99.90
4739;DHT22;2383;48.632;10.156;2023-07-29T18:43:46;19.50;99.90
4739;DHT22;2383;48.632;10.156;2023-07-29T18:47:48;19.30;99.90
4739;DHT22;2383;48.632;10.156;2023-07-29T18:51:54;19.30;99.90
4739;DHT22;2383;48.632;10.156;2023-07-29T18:55:56;19.20;99.90
4739;DHT22;2383;48.632;10.156;2023-07-29T18:59:58;19.00;99.90
4739;DHT22;2383;48.632;10.156;2023-07-29T19:04:02;19.10;99.90
4739;DHT22;2383;48.632;10.156;2023-07-29T19:08:05;18.70;99.90
4739;DHT22;2383;48.632;10.156;2023-07-29T19:12:09;18.60;99.90
4739;DHT22;2383;48.632;10.156;2023-07-29T19:16:12;18.10;99.90
4739;DHT22;2383;48.632;10.156;2023-07-29T19:20:14;18.30;99.90
4739;DHT22;2383;48.632;10.156;2023-07-29T19:24:16;18.50;99.90
4739;DHT22;2383;48.632;10.156;2023-07-29T19:28:18;18.60;99.90
4739;DHT22;2383;48.632;10.156;2023-07-29T19:32:20;18.60;99.90
4739;DHT22;2383;48.632;10.156;2023-07-29T19:36:24;18.60;99.90
4739;DHT22;2383;48.632;10.156;2023-07-29T19:40:26;18.40;99.90
4739;DHT22;2383;48.632;10.156;2023-07-29T19:44:28;18.40;99.90
4739;DHT22;2383;48.632;10.156;2023-07-29T19:48:32;18.40;99.90
4739;DHT22;2383;48.632;10.156;2023-07-29T19:52:34;18.40;99.90
4739;DHT22;2383;48.632;10.156;2023-07-29T19:56:36;18.40;99.90
4739;DHT22;2383;48.632;10.156;2023-07-29T20:00:37;18.50;99.90
4739;DHT22;2383;48.632;10.156;2023-07-29T20:04:40;18.60;99.90
4739;DHT22;2383;48.632;10.156;2023-07-29T20:08:42;18.70;99.90
4739;DHT22;2383;48.632;10.156;2023-07-29T20:12:44;18.70;99.90
4739;DHT22;2383;48.632;10.156;2023-07-29T20:16:46;18.50;99.90
4739;DHT22;2383;48.632;10.156;2023-07-29T20:20:49;18.60;99.90
4739;DHT22;2383;48.632;10.156;2023-07-29T20:24:51;18.00;99.90
4739;DHT22;2383;48.632;10.156;2023-07-29T20:28:53;17.60;99.90
4739;DHT22;2383;48.632;10.156;2023-07-29T20:32:55;17.80;99.90
4739;DHT22;2383;48.632;10.156;2023-07-29T20:36:57;17.70;99.90
4739;DHT22;2383;48.632;10.156;2023-07-29T20:40:59;17.60;99.90
4739;DHT22;2383;48.632;10.156;2023-07-29T20:45:01;17.60;99.90
4739;DHT22;2383;48.632;10.156;2023-07-29T20:49:05;17.90;99.90
4739;DHT22;2383;48.632;10.156;2023-07-29T20:53:07;17.70;99.90
4739;DHT22;2383;48.632;10.156;2023-07-29T20:57:08;17.90;99.90
4739;DHT22;2383;48.632;10.156;2023-07-29T21:01:10;18.00;99.90
4739;DHT22;2383;48.632;10.156;2023-07-29T21:05:12;18.30;99.90
4739;DHT22;2383;48.632;10.156;2023-07-29T21:09:15;18.20;99.90
4739;DHT22;2383;48.632;10.156;2023-07-29T21:13:17;18.30;99.90
4739;DHT22;2383;48.632;10.156;2023-07-29T21:17:19;18.30;99.90
4739;DHT22;2383;48.632;10.156;2023-07-29T21:21:21;18.30;99.90
4739;DHT22;2383;48.632;10.156;2023-07-29T21:25:23;18.20;99.90
4739;DHT22;2383;48.632;10.156;2023-07-29T21:29:25;18.20;99.90
4739;DHT22;2383;48.632;10.156;2023-07-29T21:33:27;18.20;99.90
4739;DHT22;2383;48.632;10.156;2023-07-29T21:37:29;18.30;99.90
4739;DHT22;2383;48.632;10.156;2023-07-29T21:41:37;18.20;99.90
4739;DHT22;2383;48.632;10.156;2023-07-29T21:45:40;18.10;99.90
4739;DHT22;2383;48.632;10.156;2023-07-29T21:49:43;18.10;99.90
4739;DHT22;2383;48.632;10.156;2023-07-29T21:53:44;18.20;99.90
4739;DHT22;2383;48.632;10.156;2023-07-29T21:57:46;18.20;99.90
4739;DHT22;2383;48.632;10.156;2023-07-29T22:01:48;18.30;99.90
4739;DHT22;2383;48.632;10.156;2023-07-29T22:05:50;18.30;99.90
4739;DHT22;2383;48.632;10.156;2023-07-29T22:09:53;18.40;99.90
4739;DHT22;2383;48.632;10.156;2023-07-29T22:13:55;18.10;99.90
4739;DHT22;2383;48.632;10.156;2023-07-29T22:17:57;18.20;99.90
4739;DHT22;2383;48.632;10.156;2023-07-29T22:21:59;18.20;99.90
4739;DHT22;2383;48.632;10.156;2023-07-29T22:26:03;18.00;99.90
4739;DHT22;2383;48.632;10.156;2023-07-29T22:30:06;18.20;99.90
4739;DHT22;2383;48.632;10.156;2023-07-29T22:34:08;18.10;99.90
4739;DHT22;2383;48.632;10.156;2023-07-29T22:38:10;18.20;99.90
4739;DHT22;2383;48.632;10.156;2023-07-29T22:42:11;18.20;99.90
4739;DHT22;2383;48.632;10.156;2023-07-29T22:46:14;18.40;99.90
4739;DHT22;2383;48.632;10.156;2023-07-29T22:50:17;18.40;99.90
4739;DHT22;2383;48.632;10.156;2023-07-29T22:54:18;18.40;99.90
4739;DHT22;2383;48.632;10.156;2023-07-29T22:58:21;18.50;99.90
4739;DHT22;2383;48.632;10.156;2023-07-29T23:02:23;18.60;99.90
4739;DHT22;2383;48.632;10.156;2023-07-29T23:06:24;18.60;99.90
4739;DHT22;2383;48.632;10.156;2023-07-29T23:10:27;18.40;99.90
4739;DHT22;2383;48.632;10.156;2023-07-29T23:14:30;18.40;99.90
4739;DHT22;2383;48.632;10.156;2023-07-29T23:18:32;18.40;99.90
4739;DHT22;2383;48.632;10.156;2023-07-29T23:22:34;18.40;99.90
4739;DHT22;2383;48.632;10.156;2023-07-29T23:26:36;18.20;99.90
4739;DHT22;2383;48.632;10.156;2023-07-29T23:30:38;18.20;99.90
4739;DHT22;2383;48.632;10.156;2023-07-29T23:34:40;18.20;99.90
4739;DHT22;2383;48.632;10.156;2023-07-29T23:38:42;18.10;99.90
4739;DHT22;2383;48.632;10.156;2023-07-29T23:42:44;18.10;99.90
4739;DHT22;2383;48.632;10.156;2023-07-29T23:46:45;18.10;99.90
4739;DHT22;2383;48.632;10.156;2023-07-29T23:50:47;18.20;99.90
4739;DHT22;2383;48.632;10.156;2023-07-29T23:54:49;18.20;99.90
4739;DHT22;2383;48.632;10.156;2023-07-29T23:58:51;18.30;99.90
